createdAt,value
2018-01-13T00:01:44.165Z,8.23
2018-01-13T00:04:10.619Z,7.10
2018-01-13T00:06:37.019Z,7.90
2018-01-13T00:09:03.723Z,8.47
2018-01-13T00:11:30.120Z,8.20
2018-01-13T00:13:56.515Z,8.73
2018-01-13T00:16:22.923Z,8.60
2018-01-13T00:18:49.300Z,10.53
2018-01-13T00:21:15.751Z,10.53
2018-01-13T00:23:42.144Z,9.80
2018-01-13T00:26:08.540Z,18.13
2018-01-13T00:28:34.956Z,17.57
2018-01-13T00:31:01.360Z,12.90
2018-01-13T00:33:27.704Z,16.20
2018-01-13T00:35:54.129Z,11.20
2018-01-13T00:38:20.539Z,11.97
2018-01-13T00:40:46.931Z,12.33
2018-01-13T00:43:13.387Z,10.50
2018-01-13T00:45:39.759Z,11.07
2018-01-13T00:48:06.166Z,11.17
2018-01-13T00:50:32.556Z,9.53
2018-01-13T00:52:58.891Z,8.97
2018-01-13T00:55:25.223Z,9.10
2018-01-13T00:57:51.627Z,9.53
2018-01-13T01:00:17.952Z,8.37
2018-01-13T01:02:44.311Z,7.80
2018-01-13T01:05:10.672Z,8.67
2018-01-13T01:07:37.061Z,9.60
2018-01-13T01:10:03.453Z,9.93
2018-01-13T01:12:29.859Z,9.30
2018-01-13T01:14:56.207Z,8.80
2018-01-13T01:17:22.577Z,9.20
2018-01-13T01:19:48.903Z,8.63
2018-01-13T01:22:15.297Z,7.97
2018-01-13T01:24:41.771Z,7.60
2018-01-13T01:27:08.179Z,7.53
2018-01-13T01:29:34.582Z,7.70
2018-01-13T01:32:01.020Z,7.53
2018-01-13T01:34:27.419Z,8.53
2018-01-13T01:36:53.811Z,7.20
2018-01-13T01:39:20.229Z,7.80
2018-01-13T01:41:46.599Z,8.20
2018-01-13T01:44:13.072Z,7.00
2018-01-13T01:46:39.439Z,6.50
2018-01-13T01:49:05.834Z,7.40
2018-01-13T01:51:32.232Z,6.47
2018-01-13T01:53:58.683Z,7.13
2018-01-13T01:56:25.097Z,7.13
2018-01-13T01:58:51.480Z,6.77
2018-01-13T02:01:17.867Z,6.83
2018-01-13T02:03:44.315Z,7.27
2018-01-13T02:06:10.656Z,6.87
2018-01-13T02:08:37.028Z,6.20
2018-01-13T02:11:03.395Z,7.40
2018-01-13T02:13:29.802Z,6.37
2018-01-13T02:15:56.215Z,6.47
2018-01-13T02:18:22.611Z,6.13
2018-01-13T02:20:48.997Z,5.73
2018-01-13T02:23:15.420Z,5.90
2018-01-13T02:25:41.792Z,6.07
2018-01-13T02:28:08.222Z,5.20
2018-01-13T02:30:34.760Z,5.70
2018-01-13T02:33:01.171Z,5.63
2018-01-13T02:35:27.615Z,5.20
2018-01-13T02:37:53.950Z,4.83
2018-01-13T02:40:20.307Z,5.00
2018-01-13T02:42:46.695Z,4.97
2018-01-13T02:45:13.031Z,5.00
2018-01-13T02:47:39.404Z,5.10
2018-01-13T02:50:05.744Z,5.20
2018-01-13T02:52:32.120Z,5.63
2018-01-13T02:54:58.471Z,5.20
2018-01-13T02:57:24.906Z,4.87
2018-01-13T02:59:51.339Z,4.80
2018-01-13T03:02:17.828Z,5.17
2018-01-13T03:04:44.255Z,4.93
2018-01-13T03:07:10.638Z,4.93
2018-01-13T03:09:37.043Z,4.97
2018-01-13T03:12:03.438Z,5.40
2018-01-13T03:14:29.823Z,4.60
2018-01-13T03:16:56.214Z,4.97
2018-01-13T03:19:22.575Z,5.37
2018-01-13T03:21:49.028Z,4.87
2018-01-13T03:24:15.374Z,5.40
2018-01-13T03:26:41.710Z,4.83
2018-01-13T03:29:08.049Z,5.50
2018-01-13T03:31:34.383Z,4.93
2018-01-13T03:34:00.795Z,5.00
2018-01-13T03:36:27.223Z,5.03
2018-01-13T03:38:53.594Z,5.37
2018-01-13T03:41:19.975Z,5.50
2018-01-13T03:43:46.367Z,5.10
2018-01-13T03:46:12.856Z,6.13
2018-01-13T03:48:39.390Z,6.90
2018-01-13T03:51:05.795Z,6.37
2018-01-13T03:53:32.171Z,5.93
2018-01-13T03:55:58.571Z,6.27
2018-01-13T03:58:24.967Z,6.87
2018-01-13T04:00:51.308Z,6.30
2018-01-13T04:03:17.699Z,5.97
2018-01-13T04:05:44.068Z,7.10
2018-01-13T04:08:10.491Z,6.50
2018-01-13T04:10:36.881Z,6.43
2018-01-13T04:13:03.239Z,6.47
2018-01-13T04:15:29.683Z,6.67
2018-01-13T04:17:56.078Z,6.53
2018-01-13T04:20:22.403Z,7.83
2018-01-13T04:22:48.799Z,7.27
2018-01-13T04:25:15.199Z,6.40
2018-01-13T04:27:41.586Z,6.93
2018-01-13T04:30:07.932Z,6.47
2018-01-13T04:32:34.327Z,7.63
2018-01-13T04:35:00.658Z,7.93
2018-01-13T04:37:27.070Z,8.10
2018-01-13T04:39:53.503Z,8.50
2018-01-13T04:42:20.020Z,7.77
2018-01-13T04:44:46.451Z,7.60
2018-01-13T04:47:12.783Z,8.47
2018-01-13T04:49:39.163Z,9.07
2018-01-13T04:52:05.631Z,11.70
2018-01-13T04:54:32.039Z,11.23
2018-01-13T04:56:58.435Z,11.43
2018-01-13T04:59:24.803Z,10.17
2018-01-13T05:01:51.175Z,9.80
2018-01-13T05:04:17.580Z,9.77
2018-01-13T05:06:43.983Z,8.90
2018-01-13T05:09:10.332Z,7.87
2018-01-13T05:11:36.703Z,8.40
2018-01-13T05:14:03.121Z,9.27
2018-01-13T05:16:29.483Z,10.50
2018-01-13T05:18:55.873Z,11.67
2018-01-13T05:21:22.248Z,10.10
2018-01-13T05:23:48.623Z,10.53
2018-01-13T05:26:15.087Z,8.80
2018-01-13T05:28:41.523Z,8.23
2018-01-13T05:31:07.901Z,9.07
2018-01-13T05:33:34.255Z,9.47
2018-01-13T05:36:00.627Z,8.93
2018-01-13T05:38:27.003Z,8.93
2018-01-13T05:40:53.370Z,10.10
2018-01-13T05:43:19.732Z,10.23
2018-01-13T05:45:46.134Z,9.07
2018-01-13T05:48:12.479Z,9.70
2018-01-13T05:50:38.862Z,10.37
2018-01-13T05:53:05.250Z,10.53
2018-01-13T05:55:31.619Z,8.63
2018-01-13T05:57:58.071Z,8.90
2018-01-13T06:00:24.464Z,9.20
2018-01-13T06:02:50.867Z,10.17
2018-01-13T06:05:17.271Z,10.43
2018-01-13T06:07:43.684Z,10.63
2018-01-13T06:10:10.080Z,12.47
2018-01-13T06:12:36.443Z,14.17
2018-01-13T06:15:02.885Z,12.90
2018-01-13T06:17:29.332Z,10.20
2018-01-13T06:19:55.650Z,12.33
2018-01-13T06:22:22.103Z,12.53
2018-01-13T06:24:48.479Z,12.57
2018-01-13T06:27:15.071Z,12.17
2018-01-13T06:29:41.415Z,11.30
2018-01-13T06:32:07.787Z,12.30
2018-01-13T06:34:34.235Z,13.27
2018-01-13T06:37:00.663Z,14.03
2018-01-13T06:39:27.071Z,14.60
2018-01-13T06:41:53.460Z,15.17
2018-01-13T06:44:19.835Z,17.67
2018-01-13T06:46:46.255Z,21.10
2018-01-13T06:49:12.715Z,17.27
2018-01-13T06:51:39.083Z,14.03
2018-01-13T06:54:05.607Z,17.10
2018-01-13T06:56:32.026Z,19.77
2018-01-13T06:58:58.479Z,21.37
2018-01-13T07:01:24.873Z,22.83
2018-01-13T07:03:51.216Z,24.63
2018-01-13T07:06:17.675Z,19.53
2018-01-13T07:08:44.027Z,20.23
2018-01-13T07:11:10.391Z,18.83
2018-01-13T07:13:36.827Z,19.97
2018-01-13T07:16:03.267Z,21.83
2018-01-13T07:18:29.646Z,19.43
2018-01-13T07:20:56.291Z,29.57
2018-01-13T07:23:22.709Z,24.17
2018-01-13T07:25:49.124Z,20.97
2018-01-13T07:28:15.547Z,19.73
2018-01-13T07:30:41.927Z,19.57
2018-01-13T07:33:08.319Z,21.57
2018-01-13T07:35:34.836Z,20.00
2018-01-13T07:38:01.287Z,21.60
2018-01-13T07:40:27.635Z,19.83
2018-01-13T07:42:54.028Z,20.53
2018-01-13T07:45:20.411Z,20.67
2018-01-13T07:47:46.787Z,21.43
2018-01-13T07:50:13.263Z,18.83
2018-01-13T07:52:39.620Z,21.43
2018-01-13T07:55:05.967Z,20.40
2018-01-13T07:57:32.359Z,18.63
2018-01-13T07:59:58.720Z,17.03
2018-01-13T08:02:25.123Z,19.67
2018-01-13T08:04:51.535Z,16.97
2018-01-13T08:07:17.967Z,16.53
2018-01-13T08:09:44.432Z,18.20
2018-01-13T08:12:10.837Z,19.37
2018-01-13T08:14:37.228Z,16.93
2018-01-13T08:17:03.606Z,26.37
2018-01-13T08:19:30.069Z,20.40
2018-01-13T08:21:56.496Z,20.37
2018-01-13T08:24:22.895Z,19.77
2018-01-13T08:26:49.312Z,20.67
2018-01-13T08:29:15.743Z,19.37
2018-01-13T08:31:42.101Z,19.87
2018-01-13T08:34:08.480Z,20.60
2018-01-13T08:36:34.875Z,22.33
2018-01-13T08:39:01.263Z,20.37
2018-01-13T08:41:27.699Z,19.67
2018-01-13T08:43:54.183Z,19.63
2018-01-13T08:46:20.531Z,18.83
2018-01-13T08:48:46.936Z,18.40
2018-01-13T08:51:13.436Z,19.80
2018-01-13T08:53:39.843Z,22.27
2018-01-13T08:56:06.351Z,19.03
2018-01-13T08:58:33.046Z,19.73
2018-01-13T09:00:59.478Z,19.63
2018-01-13T09:03:25.923Z,26.23
2018-01-13T09:05:52.323Z,27.10
2018-01-13T09:08:18.719Z,30.03
2018-01-13T09:10:45.143Z,20.23
2018-01-13T09:13:11.511Z,31.43
2018-01-13T09:15:37.872Z,24.27
2018-01-13T09:18:04.300Z,23.97
2018-01-13T09:20:30.687Z,25.70
2018-01-13T09:22:57.023Z,26.57
2018-01-13T09:25:23.456Z,22.50
2018-01-13T09:27:49.879Z,19.50
2018-01-13T09:30:16.365Z,17.13
2018-01-13T09:32:42.767Z,18.20
2018-01-13T09:35:09.191Z,19.20
2018-01-13T09:37:35.603Z,18.73
2018-01-13T09:40:01.983Z,19.50
2018-01-13T09:42:28.380Z,18.40
2018-01-13T09:44:54.791Z,17.23
2018-01-13T09:47:21.160Z,19.13
2018-01-13T09:49:47.579Z,18.33
2018-01-13T09:52:14.017Z,20.60
2018-01-13T09:54:40.331Z,18.63
2018-01-13T09:57:06.776Z,18.10
2018-01-13T09:59:33.252Z,19.20
2018-01-13T10:01:59.608Z,19.43
2018-01-13T10:04:26.031Z,16.67
2018-01-13T10:06:52.496Z,18.67
2018-01-13T10:09:18.888Z,18.90
2018-01-13T10:11:45.299Z,21.47
2018-01-13T10:14:11.814Z,25.83
2018-01-13T10:16:38.240Z,21.70
2018-01-13T10:19:04.640Z,22.77
2018-01-13T10:21:31.215Z,21.87
2018-01-13T10:23:57.636Z,21.80
2018-01-13T10:26:24.039Z,21.97
2018-01-13T10:28:50.491Z,21.63
2018-01-13T10:31:16.889Z,22.00
2018-01-13T10:33:43.252Z,22.27
2018-01-13T10:36:09.720Z,20.70
2018-01-13T10:38:36.107Z,18.80
2018-01-13T10:41:02.496Z,21.60
2018-01-13T10:43:28.927Z,20.77
2018-01-13T10:45:55.328Z,22.47
2018-01-13T10:48:21.675Z,22.97
2018-01-13T10:50:48.140Z,20.40
2018-01-13T10:53:14.514Z,23.50
2018-01-13T10:55:40.951Z,23.77
2018-01-13T10:58:07.299Z,21.43
2018-01-13T11:00:33.735Z,18.80
2018-01-13T11:03:00.124Z,21.17
2018-01-13T11:05:26.570Z,23.30
2018-01-13T11:07:52.939Z,22.93
2018-01-13T11:10:19.343Z,24.40
2018-01-13T11:12:45.750Z,21.40
2018-01-13T11:15:12.151Z,25.73
2018-01-13T11:17:38.543Z,19.97
2018-01-13T11:20:05.019Z,19.07
2018-01-13T11:22:31.374Z,22.13
2018-01-13T11:24:57.724Z,25.67
2018-01-13T11:27:24.141Z,24.03
2018-01-13T11:29:50.553Z,24.33
2018-01-13T11:32:16.959Z,20.93
2018-01-13T11:34:43.342Z,18.77
2018-01-13T11:37:09.690Z,15.00
2018-01-13T11:39:36.135Z,16.93
2018-01-13T11:42:02.588Z,17.17
2018-01-13T11:44:28.983Z,18.77
2018-01-13T11:46:55.471Z,19.27
2018-01-13T11:49:21.911Z,19.30
2018-01-13T11:51:48.295Z,18.87
2018-01-13T11:54:14.743Z,17.30
2018-01-13T11:56:41.153Z,16.53
2018-01-13T11:59:07.551Z,16.13
2018-01-13T12:01:34.059Z,17.67
2018-01-13T12:04:00.455Z,20.40
2018-01-13T12:06:26.886Z,19.93
2018-01-13T12:08:53.348Z,16.73
2018-01-13T12:11:19.763Z,15.93
2018-01-13T12:13:46.166Z,15.90
2018-01-13T12:16:12.632Z,15.53
2018-01-13T12:18:39.068Z,15.40
2018-01-13T12:21:05.422Z,16.33
2018-01-13T12:23:31.902Z,14.93
2018-01-13T12:25:58.275Z,17.80
2018-01-13T12:28:24.639Z,20.30
2018-01-13T12:30:51.055Z,18.50
2018-01-13T12:33:17.413Z,17.70
2018-01-13T12:35:43.779Z,16.10
2018-01-13T12:38:10.160Z,17.50
2018-01-13T12:40:36.588Z,17.90
2018-01-13T12:43:03.040Z,15.93
2018-01-13T12:45:29.479Z,17.07
2018-01-13T12:47:55.807Z,16.27
2018-01-13T12:50:22.306Z,16.63
2018-01-13T12:52:48.744Z,15.97
2018-01-13T12:55:15.143Z,15.97
2018-01-13T12:57:42.325Z,14.33
2018-01-13T13:00:09.023Z,13.87
2018-01-13T13:02:35.396Z,16.30
2018-01-13T13:05:01.807Z,13.60
2018-01-13T13:07:28.288Z,14.50
2018-01-13T13:09:54.668Z,13.70
2018-01-13T13:12:21.027Z,12.63
2018-01-13T13:14:47.459Z,13.30
2018-01-13T13:17:13.816Z,12.10
2018-01-13T13:19:40.202Z,13.27
2018-01-13T13:22:06.635Z,14.50
2018-01-13T13:24:33.083Z,13.43
2018-01-13T13:26:59.455Z,12.73
2018-01-13T13:29:25.804Z,15.00
2018-01-13T13:31:52.236Z,14.57
2018-01-13T13:34:18.599Z,14.23
2018-01-13T13:36:45.000Z,13.47
2018-01-13T13:39:11.386Z,14.77
2018-01-13T13:41:37.751Z,13.27
2018-01-13T13:44:04.184Z,12.30
2018-01-13T13:46:30.605Z,13.67
2018-01-13T13:48:57.085Z,11.90
2018-01-13T13:51:23.440Z,13.17
2018-01-13T13:53:49.795Z,12.10
2018-01-13T13:56:16.231Z,14.43
2018-01-13T13:58:42.567Z,13.57
2018-01-13T14:01:28.434Z,12.43
2018-01-13T14:03:35.399Z,12.03
2018-01-13T14:06:01.813Z,14.37
2018-01-13T14:08:28.221Z,14.73
2018-01-13T14:10:54.621Z,13.00
2018-01-13T14:13:20.987Z,14.27
2018-01-13T14:15:47.336Z,14.47
2018-01-13T14:18:13.735Z,15.90
2018-01-13T14:20:40.116Z,12.07
2018-01-13T14:23:06.492Z,13.33
2018-01-13T14:25:32.908Z,11.77
2018-01-13T14:27:59.280Z,11.23
2018-01-13T14:30:25.683Z,11.77
2018-01-13T14:32:52.103Z,12.83
2018-01-13T14:35:18.520Z,13.07
2018-01-13T14:37:44.939Z,14.00
2018-01-13T14:40:11.309Z,13.50
2018-01-13T14:42:37.711Z,13.30
2018-01-13T14:45:04.136Z,12.73
2018-01-13T14:47:30.531Z,13.63
2018-01-13T14:49:57.017Z,15.13
2018-01-13T14:52:23.419Z,16.47
2018-01-13T14:54:49.767Z,16.27
2018-01-13T14:57:16.139Z,13.70
2018-01-13T14:59:42.536Z,13.93
2018-01-13T15:02:09.064Z,14.43
2018-01-13T15:04:35.473Z,12.90
2018-01-13T15:07:01.867Z,12.70
2018-01-13T15:09:28.241Z,11.07
2018-01-13T15:11:54.584Z,12.50
2018-01-13T15:14:20.940Z,14.83
2018-01-13T15:16:47.315Z,15.73
2018-01-13T15:19:13.732Z,13.53
2018-01-13T15:21:40.076Z,12.33
2018-01-13T15:24:06.528Z,13.47
2018-01-13T15:26:32.971Z,18.80
2018-01-13T15:28:59.332Z,17.90
2018-01-13T15:31:25.735Z,19.97
2018-01-13T15:33:52.113Z,14.70
2018-01-13T15:36:18.531Z,16.23
2018-01-13T15:38:44.946Z,18.57
2018-01-13T15:41:11.323Z,19.37
2018-01-13T15:43:37.714Z,18.47
2018-01-13T15:46:04.091Z,18.03
2018-01-13T15:48:30.502Z,16.10
2018-01-13T15:50:56.885Z,13.50
2018-01-13T15:53:23.339Z,12.53
2018-01-13T15:55:49.702Z,14.07
2018-01-13T15:58:16.115Z,14.10
2018-01-13T16:00:42.512Z,11.30
2018-01-13T16:03:09.343Z,12.20
2018-01-13T16:05:35.711Z,12.67
2018-01-13T16:08:02.139Z,14.33
2018-01-13T16:10:28.508Z,14.43
2018-01-13T16:12:54.852Z,14.93
2018-01-13T16:15:21.279Z,16.40
2018-01-13T16:17:47.635Z,13.83
2018-01-13T16:20:14.112Z,13.20
2018-01-13T16:22:40.496Z,16.03
2018-01-13T16:25:06.900Z,16.63
2018-01-13T16:27:33.380Z,15.17
2018-01-13T16:29:59.818Z,12.47
2018-01-13T16:32:26.203Z,13.00
2018-01-13T16:34:52.581Z,13.67
2018-01-13T16:37:18.999Z,13.27
2018-01-13T16:39:45.345Z,22.87
2018-01-13T16:42:11.694Z,15.60
2018-01-13T16:44:38.110Z,14.37
2018-01-13T16:47:04.520Z,17.67
2018-01-13T16:49:30.879Z,16.27
2018-01-13T16:51:57.284Z,14.47
2018-01-13T16:54:23.691Z,14.23
2018-01-13T16:56:50.123Z,13.80
2018-01-13T16:59:16.608Z,12.37
2018-01-13T17:01:43.007Z,13.63
2018-01-13T17:04:09.373Z,14.90
2018-01-13T17:06:35.759Z,13.63
2018-01-13T17:09:02.259Z,14.80
2018-01-13T17:11:28.722Z,11.53
2018-01-13T17:13:55.132Z,13.03
2018-01-13T17:16:21.528Z,12.43
2018-01-13T17:18:47.999Z,11.20
2018-01-13T17:21:14.379Z,13.87
2018-01-13T17:23:40.753Z,11.37
2018-01-13T17:26:07.144Z,11.03
2018-01-13T17:28:33.573Z,9.07
2018-01-13T17:30:59.967Z,14.63
2018-01-13T17:33:26.351Z,13.67
2018-01-13T17:35:52.723Z,13.40
2018-01-13T17:38:19.108Z,12.97
2018-01-13T17:40:45.488Z,18.20
2018-01-13T17:43:11.832Z,19.33
2018-01-13T17:45:38.225Z,20.10
2018-01-13T17:48:04.575Z,21.70
2018-01-13T17:50:30.916Z,21.07
2018-01-13T17:52:57.261Z,21.33
2018-01-13T17:55:23.688Z,18.13
2018-01-13T17:57:50.134Z,16.50
2018-01-13T18:00:16.531Z,19.07
2018-01-13T18:02:42.929Z,18.50
2018-01-13T18:05:09.344Z,16.60
2018-01-13T18:07:35.736Z,14.67
2018-01-13T18:10:02.150Z,16.73
2018-01-13T18:12:28.630Z,21.47
2018-01-13T18:14:55.016Z,23.97
2018-01-13T18:17:21.384Z,20.07
2018-01-13T18:19:47.827Z,19.90
2018-01-13T18:22:14.252Z,15.60
2018-01-13T18:24:40.627Z,20.43
2018-01-13T18:27:07.034Z,15.63
2018-01-13T18:29:34.404Z,16.97
2018-01-13T18:32:00.975Z,15.43
2018-01-13T18:34:27.388Z,16.67
2018-01-13T18:36:53.754Z,18.23
2018-01-13T18:39:20.120Z,13.37
2018-01-13T18:41:46.532Z,12.87
2018-01-13T18:44:12.931Z,11.40
2018-01-13T18:46:39.339Z,13.07
2018-01-13T18:49:05.747Z,9.87
2018-01-13T18:51:32.168Z,11.43
2018-01-13T18:53:58.562Z,14.13
2018-01-13T18:56:24.947Z,13.20
2018-01-13T18:58:51.365Z,15.20
2018-01-13T19:01:17.776Z,10.40
2018-01-13T19:03:44.220Z,9.07
2018-01-13T19:06:10.587Z,7.20
2018-01-13T19:08:36.943Z,8.70
2018-01-13T19:11:03.287Z,8.30
2018-01-13T19:13:29.671Z,5.80
2018-01-13T19:15:56.107Z,9.80
2018-01-13T19:18:22.536Z,10.00
2018-01-13T19:20:48.906Z,11.23
2018-01-13T19:23:15.277Z,7.17
2018-01-13T19:25:41.683Z,8.47
2018-01-13T19:28:08.115Z,9.83
2018-01-13T19:30:34.487Z,8.00
2018-01-13T19:33:00.936Z,7.93
2018-01-13T19:35:27.287Z,7.20
2018-01-13T19:37:53.696Z,7.97
2018-01-13T19:40:20.139Z,6.60
2018-01-13T19:42:46.491Z,5.40
2018-01-13T19:45:12.888Z,5.07
2018-01-13T19:47:39.275Z,6.43
2018-01-13T19:50:05.703Z,5.73
2018-01-13T19:52:32.128Z,5.70
2018-01-13T19:54:58.532Z,6.60
2018-01-13T19:57:24.947Z,9.23
2018-01-13T19:59:51.323Z,7.37
2018-01-13T20:02:17.703Z,8.30
2018-01-13T20:04:44.135Z,7.87
2018-01-13T20:07:10.571Z,7.40
2018-01-13T20:09:36.980Z,5.47
2018-01-13T20:12:03.380Z,6.17
2018-01-13T20:14:29.804Z,6.90
2018-01-13T20:16:56.167Z,6.80
2018-01-13T20:19:22.497Z,5.13
2018-01-13T20:21:48.950Z,6.13
2018-01-13T20:24:15.367Z,5.50
2018-01-13T20:26:41.768Z,5.10
2018-01-13T20:29:08.239Z,6.27
2018-01-13T20:31:34.632Z,6.87
2018-01-13T20:34:01.043Z,6.13
2018-01-13T20:36:27.443Z,7.97
2018-01-13T20:38:53.859Z,6.83
2018-01-13T20:41:20.243Z,6.70
2018-01-13T20:43:46.631Z,4.50
2018-01-13T20:46:13.019Z,4.83
2018-01-13T20:48:39.408Z,5.93
2018-01-13T20:51:05.824Z,4.83
2018-01-13T20:53:32.223Z,6.20
2018-01-13T20:55:58.628Z,5.23
2018-01-13T20:58:24.970Z,6.97
2018-01-13T21:00:51.378Z,7.33
2018-01-13T21:03:17.807Z,7.27
2018-01-13T21:05:44.202Z,6.27
2018-01-13T21:08:10.601Z,6.97
2018-01-13T21:10:37.037Z,7.70
2018-01-13T21:13:03.464Z,7.37
2018-01-13T21:15:29.796Z,6.43
2018-01-13T21:17:56.217Z,8.10
2018-01-13T21:20:22.691Z,7.23
2018-01-13T21:22:49.084Z,8.03
2018-01-13T21:25:15.584Z,6.87
2018-01-13T21:27:42.024Z,7.93
2018-01-13T21:30:08.509Z,7.90
2018-01-13T21:32:34.935Z,7.73
2018-01-13T21:35:01.348Z,8.10
2018-01-13T21:37:27.727Z,9.67
2018-01-13T21:39:54.155Z,9.67
2018-01-13T21:42:20.538Z,12.80
2018-01-13T21:44:46.984Z,14.00
2018-01-13T21:47:13.436Z,10.60
2018-01-13T21:49:39.735Z,7.83
2018-01-13T21:52:06.119Z,7.90
2018-01-13T21:54:32.523Z,8.50
2018-01-13T21:56:58.906Z,9.23
2018-01-13T21:59:25.398Z,8.40
2018-01-13T22:01:51.747Z,9.50
2018-01-13T22:04:18.195Z,9.67
2018-01-13T22:06:44.508Z,8.20
2018-01-13T22:09:10.888Z,7.70
2018-01-13T22:11:37.201Z,9.43
2018-01-13T22:14:03.497Z,8.00
2018-01-13T22:16:29.927Z,6.73
2018-01-13T22:18:56.263Z,7.33
2018-01-13T22:21:22.576Z,8.30
2018-01-13T22:23:48.915Z,8.40
2018-01-13T22:26:15.286Z,8.80
2018-01-13T22:28:41.654Z,8.57
2018-01-13T22:31:07.974Z,8.23
2018-01-13T22:33:34.393Z,8.07
2018-01-13T22:36:00.748Z,8.23
2018-01-13T22:38:27.068Z,8.00
2018-01-13T22:40:53.464Z,7.63
2018-01-13T22:43:19.808Z,7.73
2018-01-13T22:45:46.127Z,7.97
2018-01-13T22:48:12.443Z,7.50
2018-01-13T22:50:38.831Z,8.40
2018-01-13T22:53:05.189Z,8.30
2018-01-13T22:55:31.516Z,7.93
2018-01-13T22:57:57.824Z,6.63
2018-01-13T23:00:28.932Z,7.93
2018-01-13T23:02:55.215Z,6.47
2018-01-13T23:05:21.527Z,6.13
2018-01-13T23:07:47.907Z,5.73
2018-01-13T23:10:14.324Z,4.30
2018-01-13T23:12:40.650Z,5.80
2018-01-13T23:15:07.031Z,4.43
2018-01-13T23:17:33.423Z,4.77
2018-01-13T23:19:59.795Z,5.00
2018-01-13T23:22:26.167Z,5.03
2018-01-13T23:24:52.581Z,6.30
2018-01-13T23:27:20.971Z,5.80
2018-01-13T23:29:47.290Z,5.80
2018-01-13T23:32:13.728Z,5.97
2018-01-13T23:34:40.043Z,5.87
2018-01-13T23:37:06.393Z,5.73
2018-01-13T23:39:32.807Z,6.10
2018-01-13T23:41:59.181Z,5.33
2018-01-13T23:44:25.638Z,5.20
2018-01-13T23:46:52.017Z,5.50
2018-01-13T23:49:18.318Z,6.53
2018-01-13T23:51:44.637Z,6.87
2018-01-13T23:54:11.064Z,6.10
2018-01-13T23:56:37.425Z,5.67
2018-01-13T23:59:03.744Z,5.50
